Aeroporto :
LOGIN :

Iscrizione | Disclaimer

   EN    FR    IT 

 










Sommario :    VFR   VFR Marginale   IFR   IFR Intensivo   IFR Molto Intensivo
Visibilità : 
Base nubi : 
>= 8 km
>= 3000ft
5 / 8 km
1000 / 3000 ft
1500m / 5 km
500 / 1000 ft
800 / 1500m
200 / 500 ft
< 800m
< 200 ft
Simboli :   Temporali  Nebbia  Neve Forte  Precipitazioni Forti  Vento > 20 kt
SIGMETs :   Varie  Temporali  Ghiacco  Turbolenza  Onda orograficha  Ceneri Vulcaniche






- Altitudine del aeroporto : 1213 ft
- Codice IATA : SCQ


LEST - Santiago de Compostela

ULTIMO METAR :
  • 220737Z 19014KT 2500 +RA BKN003 BKN005 OVC011 11/11 Q0984 NOSIG

METARs OBSOLETI :
  • 220700Z 19013KT 5000 -RA BKN005 OVC010 11/11 Q0985 TEMPO 1500 SHRA BKN003 BKN020TCU
  • 220630Z 20013KT 170V230 6000 -RA BKN007 OVC011 11/11 Q0986 TEMPO 3000 SHRA BKN003 BKN020TCU
  • 220600Z 20017G27KT 170V230 6000 -RA BKN007 OVC014 11/10 Q0987 TEMPO 3000 RA
  • 220530Z 20013KT 170V230 8000 -RA BKN007 OVC011 10/10 Q0988 TEMPO 3000 RA
  • 220500Z 19013KT 160V230 8000 -RA SCT009 OVC016 10/09 Q0989 TEMPO 3000 RA BKN010

TAF TAF LEST
Valido dal 22 a 06 ore il 23 a 06 ore UTC


220500Z 2206/2306 20016KT 9000 SCT008 BKN018 TX12/2210Z TN05/2306Z
TEMPO 2206/2220 3000 RA SHRA BKN010 SCT025TCU
TEMPO 2206/2218 24018G32KT
PROB40
TEMPO 2206/2212 0800 RADZ FG BKN003
PROB40
TEMPO 2206/2215 23022G43KT 1500 +SHRA TS BKN005 SCT020CB
BECMG 2216/2219 29018G32KT



MetMap, La meteo Aeronautica in un colpo d'occhio ! - Copyright ORBIFLY Dicembre 2007 - Disclaimer

ORBIFLY MET'MAP TEAM :

Programmazione e sviluppo : Alexandra Zaïnal
Concezione e sviluppo : Baudouin d'Aumeries
Co-Programmazione e sviluppo : Marc-Olivier Méhu
Supporto tecnico e logistico : Manuel Goepfert
Aiuto per la traduzione : Arnaldo La Scala

Contatto : metmap@orbifly.com




FONTI E CREDITI :

   NOAA